sensor_id;sensor_type;location;lat;lon;timestamp;temperature;humidity
52943;DHT22;38809;53.300;6.614;2022-08-01T00:01:24;17.90;99.90
52943;DHT22;38809;53.300;6.614;2022-08-01T00:03:50;17.90;99.90
52943;DHT22;38809;53.300;6.614;2022-08-01T00:06:15;17.80;99.90
52943;DHT22;38809;53.300;6.614;2022-08-01T00:08:41;17.90;99.90
52943;DHT22;38809;53.300;6.614;2022-08-01T00:11:07;17.90;99.90
52943;DHT22;38809;53.300;6.614;2022-08-01T00:13:34;17.90;99.90
52943;DHT22;38809;53.300;6.614;2022-08-01T00:16:00;17.90;99.90
52943;DHT22;38809;53.300;6.614;2022-08-01T00:18:26;17.80;99.90
52943;DHT22;38809;53.300;6.614;2022-08-01T00:20:52;17.80;99.90
52943;DHT22;38809;53.300;6.614;2022-08-01T00:23:17;17.80;99.90
52943;DHT22;38809;53.300;6.614;2022-08-01T00:25:43;17.80;99.90
52943;DHT22;38809;53.300;6.614;2022-08-01T00:28:09;17.80;99.90
52943;DHT22;38809;53.300;6.614;2022-08-01T00:30:35;17.70;99.90
52943;DHT22;38809;53.300;6.614;2022-08-01T00:33:01;17.70;99.90
52943;DHT22;38809;53.300;6.614;2022-08-01T00:35:27;17.70;99.90
52943;DHT22;38809;53.300;6.614;2022-08-01T00:37:53;17.70;99.90
52943;DHT22;38809;53.300;6.614;2022-08-01T00:40:18;17.70;99.90
52943;DHT22;38809;53.300;6.614;2022-08-01T00:42:44;17.70;99.90
52943;DHT22;38809;53.300;6.614;2022-08-01T00:45:11;17.70;99.90
52943;DHT22;38809;53.300;6.614;2022-08-01T00:47:37;17.70;99.90
52943;DHT22;38809;53.300;6.614;2022-08-01T00:50:06;17.70;99.90
52943;DHT22;38809;53.300;6.614;2022-08-01T00:52:33;17.70;99.90
52943;DHT22;38809;53.300;6.614;2022-08-01T00:54:59;17.70;99.90
52943;DHT22;38809;53.300;6.614;2022-08-01T00:57:25;17.70;99.90
52943;DHT22;38809;53.300;6.614;2022-08-01T00:59:52;17.70;99.90
52943;DHT22;38809;53.300;6.614;2022-08-01T01:02:18;17.60;99.90
52943;DHT22;38809;53.300;6.614;2022-08-01T01:04:44;17.60;99.90
52943;DHT22;38809;53.300;6.614;2022-08-01T01:07:19;17.60;99.90
52943;DHT22;38809;53.300;6.614;2022-08-01T01:10:00;17.60;99.90
52943;DHT22;38809;53.300;6.614;2022-08-01T01:12:44;17.50;99.90
52943;DHT22;38809;53.300;6.614;2022-08-01T01:15:22;17.50;99.90
52943;DHT22;38809;53.300;6.614;2022-08-01T01:17:58;17.50;99.90
52943;DHT22;38809;53.300;6.614;2022-08-01T01:20:34;17.40;99.90
52943;DHT22;38809;53.300;6.614;2022-08-01T01:26:21;17.40;99.90
52943;DHT22;38809;53.300;6.614;2022-08-01T01:31:44;17.20;99.90
52943;DHT22;38809;53.300;6.614;2022-08-01T01:34:13;17.20;99.90
52943;DHT22;38809;53.300;6.614;2022-08-01T01:36:39;17.20;99.90
52943;DHT22;38809;53.300;6.614;2022-08-01T01:39:06;17.30;99.90
52943;DHT22;38809;53.300;6.614;2022-08-01T01:41:33;17.20;99.90
52943;DHT22;38809;53.300;6.614;2022-08-01T01:44:01;17.20;99.90
52943;DHT22;38809;53.300;6.614;2022-08-01T01:46:28;17.20;99.90
52943;DHT22;38809;53.300;6.614;2022-08-01T01:48:57;17.20;99.90
52943;DHT22;38809;53.300;6.614;2022-08-01T01:51:25;17.30;99.90
52943;DHT22;38809;53.300;6.614;2022-08-01T01:53:53;17.20;99.90
52943;DHT22;38809;53.300;6.614;2022-08-01T01:56:20;17.20;99.90
52943;DHT22;38809;53.300;6.614;2022-08-01T01:58:51;17.20;99.90
52943;DHT22;38809;53.300;6.614;2022-08-01T02:01:18;17.20;99.90
52943;DHT22;38809;53.300;6.614;2022-08-01T02:03:46;17.30;99.90
52943;DHT22;38809;53.300;6.614;2022-08-01T02:06:14;17.30;99.90
52943;DHT22;38809;53.300;6.614;2022-08-01T02:08:43;17.30;99.90
52943;DHT22;38809;53.300;6.614;2022-08-01T02:11:10;17.30;99.90
52943;DHT22;38809;53.300;6.614;2022-08-01T02:13:51;17.30;99.90
52943;DHT22;38809;53.300;6.614;2022-08-01T02:16:19;17.30;99.90
52943;DHT22;38809;53.300;6.614;2022-08-01T02:18:46;17.30;99.90
52943;DHT22;38809;53.300;6.614;2022-08-01T02:21:13;17.30;99.90
52943;DHT22;38809;53.300;6.614;2022-08-01T02:23:42;17.20;99.90
52943;DHT22;38809;53.300;6.614;2022-08-01T02:26:15;17.20;99.90
52943;DHT22;38809;53.300;6.614;2022-08-01T02:28:59;17.20;99.90
52943;DHT22;38809;53.300;6.614;2022-08-01T02:31:28;17.20;99.90
52943;DHT22;38809;53.300;6.614;2022-08-01T02:33:59;17.10;99.90
52943;DHT22;38809;53.300;6.614;2022-08-01T02:36:28;17.10;99.90
52943;DHT22;38809;53.300;6.614;2022-08-01T02:38:57;17.10;99.90
52943;DHT22;38809;53.300;6.614;2022-08-01T02:41:26;16.90;99.90
52943;DHT22;38809;53.300;6.614;2022-08-01T02:43:59;17.00;99.90
52943;DHT22;38809;53.300;6.614;2022-08-01T02:46:39;17.00;99.90
52943;DHT22;38809;53.300;6.614;2022-08-01T02:49:08;16.90;99.90
52943;DHT22;38809;53.300;6.614;2022-08-01T02:51:36;16.90;99.90
52943;DHT22;38809;53.300;6.614;2022-08-01T02:54:03;16.80;99.90
52943;DHT22;38809;53.300;6.614;2022-08-01T02:56:30;16.90;99.90
52943;DHT22;38809;53.300;6.614;2022-08-01T02:59:05;16.80;99.90
52943;DHT22;38809;53.300;6.614;2022-08-01T03:01:33;16.30;99.90
52943;DHT22;38809;53.300;6.614;2022-08-01T03:03:59;16.70;99.90
52943;DHT22;38809;53.300;6.614;2022-08-01T03:06:25;16.70;99.90
52943;DHT22;38809;53.300;6.614;2022-08-01T03:08:53;16.60;99.90
52943;DHT22;38809;53.300;6.614;2022-08-01T03:11:19;16.60;99.90
52943;DHT22;38809;53.300;6.614;2022-08-01T03:13:47;16.60;99.90
52943;DHT22;38809;53.300;6.614;2022-08-01T03:16:15;16.60;99.90
52943;DHT22;38809;53.300;6.614;2022-08-01T03:18:44;16.60;99.90
52943;DHT22;38809;53.300;6.614;2022-08-01T03:21:13;16.60;99.90
52943;DHT22;38809;53.300;6.614;2022-08-01T03:23:40;16.60;99.90
52943;DHT22;38809;53.300;6.614;2022-08-01T03:26:07;16.60;99.90
52943;DHT22;38809;53.300;6.614;2022-08-01T03:28:33;16.60;99.90
52943;DHT22;38809;53.300;6.614;2022-08-01T03:31:02;16.60;99.90
52943;DHT22;38809;53.300;6.614;2022-08-01T03:33:28;16.60;99.90
52943;DHT22;38809;53.300;6.614;2022-08-01T03:35:54;16.60;99.90
52943;DHT22;38809;53.300;6.614;2022-08-01T03:38:23;16.60;99.90
52943;DHT22;38809;53.300;6.614;2022-08-01T03:44:03;16.50;99.90
52943;DHT22;38809;53.300;6.614;2022-08-01T03:46:46;16.30;99.90
52943;DHT22;38809;53.300;6.614;2022-08-01T03:49:18;16.40;99.90
52943;DHT22;38809;53.300;6.614;2022-08-01T03:51:47;16.40;99.90
52943;DHT22;38809;53.300;6.614;2022-08-01T03:54:17;16.30;99.90
52943;DHT22;38809;53.300;6.614;2022-08-01T03:56:47;16.30;99.90
52943;DHT22;38809;53.300;6.614;2022-08-01T03:59:14;16.30;99.90
52943;DHT22;38809;53.300;6.614;2022-08-01T04:01:41;16.20;99.90
52943;DHT22;38809;53.300;6.614;2022-08-01T04:04:08;16.20;99.90
52943;DHT22;38809;53.300;6.614;2022-08-01T04:06:37;16.10;99.90
52943;DHT22;38809;53.300;6.614;2022-08-01T04:09:03;16.10;99.90
52943;DHT22;38809;53.300;6.614;2022-08-01T04:11:29;16.00;99.90
52943;DHT22;38809;53.300;6.614;2022-08-01T04:13:55;15.90;99.90
52943;DHT22;38809;53.300;6.614;2022-08-01T04:16:22;15.90;99.90
52943;DHT22;38809;53.300;6.614;2022-08-01T04:18:48;15.90;99.90
52943;DHT22;38809;53.300;6.614;2022-08-01T04:21:14;15.90;99.90
52943;DHT22;38809;53.300;6.614;2022-08-01T04:23:44;15.80;99.90
52943;DHT22;38809;53.300;6.614;2022-08-01T04:26:12;15.90;99.90
52943;DHT22;38809;53.300;6.614;2022-08-01T04:28:42;15.90;99.90
52943;DHT22;38809;53.300;6.614;2022-08-01T04:31:09;15.90;99.90
52943;DHT22;38809;53.300;6.614;2022-08-01T04:33:40;16.00;99.90
52943;DHT22;38809;53.300;6.614;2022-08-01T04:36:06;16.10;99.90
52943;DHT22;38809;53.300;6.614;2022-08-01T04:38:36;16.30;99.90
52943;DHT22;38809;53.300;6.614;2022-08-01T04:41:03;16.30;99.90
52943;DHT22;38809;53.300;6.614;2022-08-01T04:43:32;16.20;99.90
52943;DHT22;38809;53.300;6.614;2022-08-01T04:45:58;16.20;99.90
52943;DHT22;38809;53.300;6.614;2022-08-01T04:48:24;16.20;99.90
52943;DHT22;38809;53.300;6.614;2022-08-01T04:50:51;16.20;99.90
52943;DHT22;38809;53.300;6.614;2022-08-01T04:53:19;16.20;99.90
52943;DHT22;38809;53.300;6.614;2022-08-01T04:55:47;16.10;99.90
52943;DHT22;38809;53.300;6.614;2022-08-01T04:58:15;16.10;99.90
52943;DHT22;38809;53.300;6.614;2022-08-01T05:00:41;16.10;99.90
52943;DHT22;38809;53.300;6.614;2022-08-01T05:03:07;16.20;99.90
52943;DHT22;38809;53.300;6.614;2022-08-01T05:05:32;16.20;99.90
52943;DHT22;38809;53.300;6.614;2022-08-01T05:07:58;16.20;99.90
52943;DHT22;38809;53.300;6.614;2022-08-01T05:10:25;16.20;99.90
52943;DHT22;38809;53.300;6.614;2022-08-01T05:12:51;16.10;99.90
52943;DHT22;38809;53.300;6.614;2022-08-01T05:15:17;16.10;99.90
52943;DHT22;38809;53.300;6.614;2022-08-01T05:17:43;16.20;99.90
52943;DHT22;38809;53.300;6.614;2022-08-01T05:20:09;16.20;99.90
52943;DHT22;38809;53.300;6.614;2022-08-01T05:22:35;16.20;99.90
52943;DHT22;38809;53.300;6.614;2022-08-01T05:25:00;16.20;99.90
52943;DHT22;38809;53.300;6.614;2022-08-01T05:27:26;16.20;99.90
52943;DHT22;38809;53.300;6.614;2022-08-01T05:29:52;16.30;99.90
52943;DHT22;38809;53.300;6.614;2022-08-01T05:32:17;16.30;99.90
52943;DHT22;38809;53.300;6.614;2022-08-01T05:34:43;16.30;99.90
52943;DHT22;38809;53.300;6.614;2022-08-01T05:37:10;16.40;99.90
52943;DHT22;38809;53.300;6.614;2022-08-01T05:39:35;16.40;99.90
52943;DHT22;38809;53.300;6.614;2022-08-01T05:42:02;16.40;99.90
52943;DHT22;38809;53.300;6.614;2022-08-01T05:44:27;16.40;99.90
52943;DHT22;38809;53.300;6.614;2022-08-01T05:46:53;16.30;99.90
52943;DHT22;38809;53.300;6.614;2022-08-01T05:49:19;16.40;99.90
52943;DHT22;38809;53.300;6.614;2022-08-01T05:51:44;16.40;99.90
52943;DHT22;38809;53.300;6.614;2022-08-01T05:54:10;16.40;99.90
52943;DHT22;38809;53.300;6.614;2022-08-01T05:56:36;16.40;99.90
52943;DHT22;38809;53.300;6.614;2022-08-01T05:59:02;16.40;99.90
52943;DHT22;38809;53.300;6.614;2022-08-01T06:01:28;16.50;99.90
52943;DHT22;38809;53.300;6.614;2022-08-01T06:03:53;16.40;99.90
52943;DHT22;38809;53.300;6.614;2022-08-01T06:06:20;16.50;99.90
52943;DHT22;38809;53.300;6.614;2022-08-01T06:08:46;16.50;99.90
52943;DHT22;38809;53.300;6.614;2022-08-01T06:11:12;16.50;99.90
52943;DHT22;38809;53.300;6.614;2022-08-01T06:13:38;16.50;99.90
52943;DHT22;38809;53.300;6.614;2022-08-01T06:16:04;16.50;99.90
52943;DHT22;38809;53.300;6.614;2022-08-01T06:18:30;16.50;99.90
52943;DHT22;38809;53.300;6.614;2022-08-01T06:20:55;16.50;99.90
52943;DHT22;38809;53.300;6.614;2022-08-01T06:23:21;16.50;99.90
52943;DHT22;38809;53.300;6.614;2022-08-01T06:25:47;16.50;99.90
52943;DHT22;38809;53.300;6.614;2022-08-01T06:28:13;16.40;99.90
52943;DHT22;38809;53.300;6.614;2022-08-01T06:30:39;16.50;99.90
52943;DHT22;38809;53.300;6.614;2022-08-01T06:33:05;16.50;99.90
52943;DHT22;38809;53.300;6.614;2022-08-01T06:35:30;16.50;99.90
52943;DHT22;38809;53.300;6.614;2022-08-01T06:37:57;16.50;99.90
52943;DHT22;38809;53.300;6.614;2022-08-01T06:40:23;16.60;99.90
52943;DHT22;38809;53.300;6.614;2022-08-01T06:42:49;16.60;99.90
52943;DHT22;38809;53.300;6.614;2022-08-01T06:45:15;16.60;99.90
52943;DHT22;38809;53.300;6.614;2022-08-01T06:47:42;16.80;99.90
52943;DHT22;38809;53.300;6.614;2022-08-01T06:50:09;16.80;99.90
52943;DHT22;38809;53.300;6.614;2022-08-01T06:52:36;16.80;99.90
52943;DHT22;38809;53.300;6.614;2022-08-01T06:55:02;16.70;99.90
52943;DHT22;38809;53.300;6.614;2022-08-01T06:57:28;16.80;99.90
52943;DHT22;38809;53.300;6.614;2022-08-01T06:59:54;16.90;99.90
52943;DHT22;38809;53.300;6.614;2022-08-01T07:02:21;17.00;99.90
52943;DHT22;38809;53.300;6.614;2022-08-01T07:04:46;16.90;99.90
52943;DHT22;38809;53.300;6.614;2022-08-01T07:07:12;17.00;99.90
52943;DHT22;38809;53.300;6.614;2022-08-01T07:09:38;17.10;99.90
52943;DHT22;38809;53.300;6.614;2022-08-01T07:12:06;17.20;99.90
52943;DHT22;38809;53.300;6.614;2022-08-01T07:14:32;17.30;99.90
52943;DHT22;38809;53.300;6.614;2022-08-01T07:16:58;17.40;99.90
52943;DHT22;38809;53.300;6.614;2022-08-01T07:19:23;17.50;99.90
52943;DHT22;38809;53.300;6.614;2022-08-01T07:21:49;17.60;99.90
52943;DHT22;38809;53.300;6.614;2022-08-01T07:24:15;17.80;99.90
52943;DHT22;38809;53.300;6.614;2022-08-01T07:26:43;17.70;99.90
52943;DHT22;38809;53.300;6.614;2022-08-01T07:29:08;17.60;99.90
52943;DHT22;38809;53.300;6.614;2022-08-01T07:31:34;17.50;99.90
52943;DHT22;38809;53.300;6.614;2022-08-01T07:34:01;17.70;99.90
52943;DHT22;38809;53.300;6.614;2022-08-01T07:36:27;17.70;99.90
52943;DHT22;38809;53.300;6.614;2022-08-01T07:38:52;18.00;99.90
52943;DHT22;38809;53.300;6.614;2022-08-01T07:41:18;18.10;99.90
52943;DHT22;38809;53.300;6.614;2022-08-01T07:43:44;18.20;99.90
52943;DHT22;38809;53.300;6.614;2022-08-01T07:46:09;18.20;99.90
52943;DHT22;38809;53.300;6.614;2022-08-01T07:48:35;18.30;99.90
52943;DHT22;38809;53.300;6.614;2022-08-01T07:51:01;18.00;99.90
52943;DHT22;38809;53.300;6.614;2022-08-01T07:53:26;17.60;99.90
52943;DHT22;38809;53.300;6.614;2022-08-01T07:55:52;17.90;99.90
52943;DHT22;38809;53.300;6.614;2022-08-01T07:58:18;17.80;99.90
52943;DHT22;38809;53.300;6.614;2022-08-01T08:00:44;18.10;99.90
52943;DHT22;38809;53.300;6.614;2022-08-01T08:03:10;18.10;99.90
52943;DHT22;38809;53.300;6.614;2022-08-01T08:05:35;18.10;99.90
52943;DHT22;38809;53.300;6.614;2022-08-01T08:08:05;18.20;99.90
52943;DHT22;38809;53.300;6.614;2022-08-01T08:10:32;18.20;99.90
52943;DHT22;38809;53.300;6.614;2022-08-01T08:12:58;18.60;99.90
52943;DHT22;38809;53.300;6.614;2022-08-01T08:15:23;18.70;99.90
52943;DHT22;38809;53.300;6.614;2022-08-01T08:17:49;18.40;99.90
52943;DHT22;38809;53.300;6.614;2022-08-01T08:20:15;18.50;99.90
52943;DHT22;38809;53.300;6.614;2022-08-01T08:22:41;18.40;99.90
52943;DHT22;38809;53.300;6.614;2022-08-01T08:25:07;18.60;99.90
52943;DHT22;38809;53.300;6.614;2022-08-01T08:27:34;18.50;99.90
52943;DHT22;38809;53.300;6.614;2022-08-01T08:29:59;18.10;99.90
52943;DHT22;38809;53.300;6.614;2022-08-01T08:32:25;18.20;99.90
52943;DHT22;38809;53.300;6.614;2022-08-01T08:34:51;18.20;99.90
52943;DHT22;38809;53.300;6.614;2022-08-01T08:37:17;18.50;99.90
52943;DHT22;38809;53.300;6.614;2022-08-01T08:39:43;18.20;99.90
52943;DHT22;38809;53.300;6.614;2022-08-01T08:42:10;18.40;99.90
52943;DHT22;38809;53.300;6.614;2022-08-01T08:44:37;18.20;99.90
52943;DHT22;38809;53.300;6.614;2022-08-01T08:47:05;18.40;99.90
52943;DHT22;38809;53.300;6.614;2022-08-01T08:49:33;18.40;99.90
52943;DHT22;38809;53.300;6.614;2022-08-01T08:51:59;18.60;99.90
52943;DHT22;38809;53.300;6.614;2022-08-01T08:54:26;18.70;99.90
52943;DHT22;38809;53.300;6.614;2022-08-01T08:56:53;18.40;99.90
52943;DHT22;38809;53.300;6.614;2022-08-01T08:59:20;18.20;99.90
52943;DHT22;38809;53.300;6.614;2022-08-01T09:01:46;18.40;99.90
52943;DHT22;38809;53.300;6.614;2022-08-01T09:04:12;18.30;99.90
52943;DHT22;38809;53.300;6.614;2022-08-01T09:06:39;18.40;99.90
52943;DHT22;38809;53.300;6.614;2022-08-01T09:09:06;18.60;99.90
52943;DHT22;38809;53.300;6.614;2022-08-01T09:11:33;18.60;99.90
52943;DHT22;38809;53.300;6.614;2022-08-01T09:14:14;19.20;99.90
52943;DHT22;38809;53.300;6.614;2022-08-01T09:16:42;19.30;99.90
52943;DHT22;38809;53.300;6.614;2022-08-01T09:19:10;19.20;99.90
52943;DHT22;38809;53.300;6.614;2022-08-01T09:21:37;19.20;99.90
52943;DHT22;38809;53.300;6.614;2022-08-01T09:24:02;19.30;99.90
52943;DHT22;38809;53.300;6.614;2022-08-01T09:26:35;19.10;99.90
52943;DHT22;38809;53.300;6.614;2022-08-01T09:29:16;19.30;99.90
52943;DHT22;38809;53.300;6.614;2022-08-01T09:31:44;19.00;99.90
52943;DHT22;38809;53.300;6.614;2022-08-01T09:34:10;18.80;99.90
52943;DHT22;38809;53.300;6.614;2022-08-01T09:36:48;19.10;99.90
52943;DHT22;38809;53.300;6.614;2022-08-01T09:39:18;18.90;99.90
52943;DHT22;38809;53.300;6.614;2022-08-01T09:41:45;19.20;99.90
52943;DHT22;38809;53.300;6.614;2022-08-01T09:44:11;18.80;99.90
52943;DHT22;38809;53.300;6.614;2022-08-01T09:46:54;19.20;99.90
52943;DHT22;38809;53.300;6.614;2022-08-01T09:49:31;19.60;99.90
52943;DHT22;38809;53.300;6.614;2022-08-01T09:51:58;19.20;99.90
52943;DHT22;38809;53.300;6.614;2022-08-01T09:54:32;19.30;99.90
52943;DHT22;38809;53.300;6.614;2022-08-01T09:57:09;19.20;99.90
52943;DHT22;38809;53.300;6.614;2022-08-01T09:59:40;19.10;99.90
52943;DHT22;38809;53.300;6.614;2022-08-01T10:02:11;19.30;99.90
52943;DHT22;38809;53.300;6.614;2022-08-01T10:04:50;19.10;99.90
52943;DHT22;38809;53.300;6.614;2022-08-01T10:07:17;19.30;99.90
52943;DHT22;38809;53.300;6.614;2022-08-01T10:09:44;19.50;99.90
52943;DHT22;38809;53.300;6.614;2022-08-01T10:12:13;19.60;99.90
52943;DHT22;38809;53.300;6.614;2022-08-01T10:14:40;19.30;99.90
52943;DHT22;38809;53.300;6.614;2022-08-01T10:17:12;19.80;99.90
52943;DHT22;38809;53.300;6.614;2022-08-01T10:19:40;19.60;99.90
52943;DHT22;38809;53.300;6.614;2022-08-01T10:22:09;19.70;99.90
52943;DHT22;38809;53.300;6.614;2022-08-01T10:24:37;19.00;99.90
52943;DHT22;38809;53.300;6.614;2022-08-01T10:27:06;19.10;99.90
52943;DHT22;38809;53.300;6.614;2022-08-01T10:30:00;19.50;99.90
52943;DHT22;38809;53.300;6.614;2022-08-01T10:32:31;19.40;99.90
52943;DHT22;38809;53.300;6.614;2022-08-01T10:34:57;19.40;99.90
52943;DHT22;38809;53.300;6.614;2022-08-01T10:37:23;19.40;99.90
52943;DHT22;38809;53.300;6.614;2022-08-01T10:39:51;19.50;99.90
52943;DHT22;38809;53.300;6.614;2022-08-01T10:42:18;19.70;99.90
52943;DHT22;38809;53.300;6.614;2022-08-01T10:44:45;19.60;99.90
52943;DHT22;38809;53.300;6.614;2022-08-01T10:47:17;19.40;99.90
52943;DHT22;38809;53.300;6.614;2022-08-01T10:49:48;19.40;99.90
52943;DHT22;38809;53.300;6.614;2022-08-01T10:52:17;19.50;99.90
52943;DHT22;38809;53.300;6.614;2022-08-01T10:54:43;19.40;99.90
52943;DHT22;38809;53.300;6.614;2022-08-01T10:57:10;19.80;99.90
52943;DHT22;38809;53.300;6.614;2022-08-01T10:59:49;20.00;99.90
52943;DHT22;38809;53.300;6.614;2022-08-01T11:02:32;19.80;99.90
52943;DHT22;38809;53.300;6.614;2022-08-01T11:05:06;19.60;99.90
52943;DHT22;38809;53.300;6.614;2022-08-01T11:07:53;18.90;99.90
52943;DHT22;38809;53.300;6.614;2022-08-01T11:10:27;18.80;99.90
52943;DHT22;38809;53.300;6.614;2022-08-01T11:12:55;18.90;99.90
52943;DHT22;38809;53.300;6.614;2022-08-01T11:15:22;19.30;99.90
52943;DHT22;38809;53.300;6.614;2022-08-01T11:17:53;19.70;99.90
52943;DHT22;38809;53.300;6.614;2022-08-01T11:20:23;19.70;99.90
52943;DHT22;38809;53.300;6.614;2022-08-01T11:30:50;19.30;99.90
52943;DHT22;38809;53.300;6.614;2022-08-01T11:33:18;19.80;99.90
52943;DHT22;38809;53.300;6.614;2022-08-01T11:38:41;19.80;99.90
52943;DHT22;38809;53.300;6.614;2022-08-01T11:41:22;19.90;99.90
52943;DHT22;38809;53.300;6.614;2022-08-01T11:57:12;19.90;99.90
52943;DHT22;38809;53.300;6.614;2022-08-01T11:59:46;19.90;99.90
52943;DHT22;38809;53.300;6.614;2022-08-01T12:02:26;20.00;99.90
52943;DHT22;38809;53.300;6.614;2022-08-01T12:05:01;20.00;99.90
52943;DHT22;38809;53.300;6.614;2022-08-01T12:07:29;19.40;99.90
52943;DHT22;38809;53.300;6.614;2022-08-01T12:12:35;20.10;99.90
52943;DHT22;38809;53.300;6.614;2022-08-01T12:15:03;19.80;99.90
52943;DHT22;38809;53.300;6.614;2022-08-01T12:17:33;19.60;99.80
52943;DHT22;38809;53.300;6.614;2022-08-01T12:20:00;19.80;99.90
52943;DHT22;38809;53.300;6.614;2022-08-01T12:22:26;19.70;99.90
52943;DHT22;38809;53.300;6.614;2022-08-01T12:24:52;19.40;99.90
52943;DHT22;38809;53.300;6.614;2022-08-01T12:27:28;19.50;99.90
52943;DHT22;38809;53.300;6.614;2022-08-01T12:29:55;19.60;99.90
52943;DHT22;38809;53.300;6.614;2022-08-01T12:32:33;19.70;99.90
52943;DHT22;38809;53.300;6.614;2022-08-01T12:35:15;19.90;99.90
52943;DHT22;38809;53.300;6.614;2022-08-01T12:37:43;19.50;99.90
52943;DHT22;38809;53.300;6.614;2022-08-01T12:40:30;19.80;99.90
52943;DHT22;38809;53.300;6.614;2022-08-01T12:42:57;19.60;99.90
52943;DHT22;38809;53.300;6.614;2022-08-01T12:47:54;19.40;99.90
52943;DHT22;38809;53.300;6.614;2022-08-01T12:50:22;19.10;99.90
52943;DHT22;38809;53.300;6.614;2022-08-01T12:52:49;19.50;99.90
52943;DHT22;38809;53.300;6.614;2022-08-01T12:55:23;19.60;99.90
52943;DHT22;38809;53.300;6.614;2022-08-01T12:58:12;19.30;99.90
52943;DHT22;38809;53.300;6.614;2022-08-01T13:00:38;19.50;99.90
52943;DHT22;38809;53.300;6.614;2022-08-01T13:03:14;19.70;99.90
52943;DHT22;38809;53.300;6.614;2022-08-01T13:05:47;20.30;99.90
52943;DHT22;38809;53.300;6.614;2022-08-01T13:08:23;20.70;99.90
52943;DHT22;38809;53.300;6.614;2022-08-01T13:10:51;20.10;99.90
52943;DHT22;38809;53.300;6.614;2022-08-01T13:13:41;19.80;99.90
52943;DHT22;38809;53.300;6.614;2022-08-01T13:16:08;20.00;99.90
52943;DHT22;38809;53.300;6.614;2022-08-01T13:18:36;20.00;99.90
52943;DHT22;38809;53.300;6.614;2022-08-01T13:21:20;19.80;99.90
52943;DHT22;38809;53.300;6.614;2022-08-01T13:24:05;19.90;99.80
52943;DHT22;38809;53.300;6.614;2022-08-01T13:29:15;19.80;99.50
52943;DHT22;38809;53.300;6.614;2022-08-01T13:31:41;20.30;99.90
52943;DHT22;38809;53.300;6.614;2022-08-01T13:34:07;19.80;99.90
52943;DHT22;38809;53.300;6.614;2022-08-01T13:36:34;19.50;99.90
52943;DHT22;38809;53.300;6.614;2022-08-01T13:39:00;19.50;99.90
52943;DHT22;38809;53.300;6.614;2022-08-01T13:41:45;19.30;99.90
52943;DHT22;38809;53.300;6.614;2022-08-01T13:44:11;19.10;99.90
52943;DHT22;38809;53.300;6.614;2022-08-01T13:46:38;18.90;99.90
52943;DHT22;38809;53.300;6.614;2022-08-01T13:49:06;19.00;99.90
52943;DHT22;38809;53.300;6.614;2022-08-01T13:51:32;19.40;99.90
52943;DHT22;38809;53.300;6.614;2022-08-01T13:53:59;19.00;99.90
52943;DHT22;38809;53.300;6.614;2022-08-01T13:56:25;19.30;99.90
52943;DHT22;38809;53.300;6.614;2022-08-01T13:58:53;19.60;99.90
52943;DHT22;38809;53.300;6.614;2022-08-01T14:01:19;20.00;99.90
52943;DHT22;38809;53.300;6.614;2022-08-01T14:03:45;20.00;99.90
52943;DHT22;38809;53.300;6.614;2022-08-01T14:06:12;19.90;99.90
52943;DHT22;38809;53.300;6.614;2022-08-01T14:08:39;20.10;99.90
52943;DHT22;38809;53.300;6.614;2022-08-01T14:11:05;19.90;99.90
52943;DHT22;38809;53.300;6.614;2022-08-01T14:13:30;19.70;99.90
52943;DHT22;38809;53.300;6.614;2022-08-01T14:15:58;19.20;99.90
52943;DHT22;38809;53.300;6.614;2022-08-01T14:18:25;19.10;99.90
52943;DHT22;38809;53.300;6.614;2022-08-01T14:20:51;19.00;99.90
52943;DHT22;38809;53.300;6.614;2022-08-01T14:23:17;19.50;99.90
52943;DHT22;38809;53.300;6.614;2022-08-01T14:25:43;19.20;99.90
52943;DHT22;38809;53.300;6.614;2022-08-01T14:28:09;19.20;99.90
52943;DHT22;38809;53.300;6.614;2022-08-01T14:30:36;19.40;99.90
52943;DHT22;38809;53.300;6.614;2022-08-01T14:33:02;19.60;99.90
52943;DHT22;38809;53.300;6.614;2022-08-01T14:35:28;19.70;99.90
52943;DHT22;38809;53.300;6.614;2022-08-01T14:37:53;19.70;99.90
52943;DHT22;38809;53.300;6.614;2022-08-01T14:40:19;19.60;99.90
52943;DHT22;38809;53.300;6.614;2022-08-01T14:42:45;19.40;99.90
52943;DHT22;38809;53.300;6.614;2022-08-01T14:45:12;19.70;99.90
52943;DHT22;38809;53.300;6.614;2022-08-01T14:47:40;18.90;99.90
52943;DHT22;38809;53.300;6.614;2022-08-01T14:50:11;19.60;99.90
52943;DHT22;38809;53.300;6.614;2022-08-01T14:52:38;19.30;99.90
52943;DHT22;38809;53.300;6.614;2022-08-01T14:55:06;19.70;99.90
52943;DHT22;38809;53.300;6.614;2022-08-01T14:57:32;19.80;99.90
52943;DHT22;38809;53.300;6.614;2022-08-01T14:59:58;19.40;99.90
52943;DHT22;38809;53.300;6.614;2022-08-01T15:02:23;19.70;99.90
52943;DHT22;38809;53.300;6.614;2022-08-01T15:04:49;19.40;99.90
52943;DHT22;38809;53.300;6.614;2022-08-01T15:07:16;19.30;99.90
52943;DHT22;38809;53.300;6.614;2022-08-01T15:09:42;19.20;99.90
52943;DHT22;38809;53.300;6.614;2022-08-01T15:12:09;19.20;99.90
52943;DHT22;38809;53.300;6.614;2022-08-01T15:14:35;19.20;99.90
52943;DHT22;38809;53.300;6.614;2022-08-01T15:19:39;19.10;99.90
52943;DHT22;38809;53.300;6.614;2022-08-01T15:22:05;19.10;99.90
52943;DHT22;38809;53.300;6.614;2022-08-01T15:24:31;19.20;99.90
52943;DHT22;38809;53.300;6.614;2022-08-01T15:26:57;18.80;99.90
52943;DHT22;38809;53.300;6.614;2022-08-01T15:29:23;18.90;99.90
52943;DHT22;38809;53.300;6.614;2022-08-01T15:31:48;18.90;99.90
52943;DHT22;38809;53.300;6.614;2022-08-01T15:34:14;19.10;99.90
52943;DHT22;38809;53.300;6.614;2022-08-01T15:36:40;19.30;99.90
52943;DHT22;38809;53.300;6.614;2022-08-01T15:39:08;19.30;99.90
52943;DHT22;38809;53.300;6.614;2022-08-01T15:41:34;19.10;99.90
52943;DHT22;38809;53.300;6.614;2022-08-01T15:43:59;19.30;99.90
52943;DHT22;38809;53.300;6.614;2022-08-01T15:46:25;19.20;99.90
52943;DHT22;38809;53.300;6.614;2022-08-01T15:48:51;19.20;99.90
52943;DHT22;38809;53.300;6.614;2022-08-01T15:51:17;19.20;99.90
52943;DHT22;38809;53.300;6.614;2022-08-01T15:53:43;19.20;99.90
52943;DHT22;38809;53.300;6.614;2022-08-01T15:56:09;18.90;99.90
52943;DHT22;38809;53.300;6.614;2022-08-01T15:58:35;19.00;99.90
52943;DHT22;38809;53.300;6.614;2022-08-01T16:01:00;19.00;99.90
52943;DHT22;38809;53.300;6.614;2022-08-01T16:03:26;18.90;99.90
52943;DHT22;38809;53.300;6.614;2022-08-01T16:05:53;18.90;99.90
52943;DHT22;38809;53.300;6.614;2022-08-01T16:08:18;19.10;99.90
52943;DHT22;38809;53.300;6.614;2022-08-01T16:10:44;19.00;99.90
52943;DHT22;38809;53.300;6.614;2022-08-01T16:13:10;19.00;99.90
52943;DHT22;38809;53.300;6.614;2022-08-01T16:15:37;19.00;99.90
52943;DHT22;38809;53.300;6.614;2022-08-01T16:18:07;18.80;99.90
52943;DHT22;38809;53.300;6.614;2022-08-01T16:20:34;18.70;99.90